Capitol Logistics 251


PANC
Ted Stevens Anchorage International Airport
Anchorage, Alaska, US
KHSV
Huntsville International Airport
Huntsville, Alabama, US

Route Details

Aircraft Information
Primary: Boeing 767-300BDSF
Backup: Not Available
Route Data
Distance: 2850nm
Sched. Duration: 6h 00m
Avg. Duration: 6h 27m (+27m)
Times Flown: 12
Recm'd Route: TED YESKA NCA13 YXY J515 YYE J537 YPE J601 XD YWV J475 VLN J483 MOT ABR Q19 DSM J45 IRK FAM J151 VUZ
Planned Altitude: 33,000ft
Origin Wx: PANC 290453Z 03003KT 10SM BKN007 M03/M05 A3004 RMK AO2 SLP175 T10331050
Dest. Wx: KHSV 290453Z 14014G21KT 9SM -RA FEW019 FEW120 22/22 A2968 RMK AO2 SLP043 P0004 T02220217
Notes:

Financial History
Total Freight: 1,458,196lbs
Average Load: 121,516lbs/flt
Fuel Used: 1,072,826lbs
Avg. Fuel Used: 89,402lbs/flt
Fuel Expense: $1,338,149
Avg. Fuel Expense: $111,512
Avg. Fuel Cost: $1.25/lbs
Total Gross Income: $3,010,980
Pilot Pay: $2,528
Total Expenses: $325,810
Total Revenue: $1,328,856
Average Revenue: $250,914.98